Time;durP1;ratioP1;P1;durP2;ratioP2;P2;SDS_P1;SDS_P2;PMS_P1;PMS_P2;Temp;Humidity;BMP_temperature;BMP_pressure;BME280_temperature;BME280_humidity;BME280_pressure;Samples;Min_cycle;Max_cycle;Signal;HPM_P1;HPM_P2
2023/06/08 04:09:19;;;;;;;2.60;2.50;;;13.80;99.90;;;;;;4992681;28;20485;-63
2023/06/08 04:11:44;;;;;;;2.93;2.73;;;13.90;99.90;;;;;;4994011;28;20418;-63
2023/06/08 04:14:10;;;;;;;2.43;1.90;;;13.90;99.90;;;;;;4993513;28;20639;-63
2023/06/08 04:16:36;;;;;;;2.33;2.20;;;14.10;99.90;;;;;;4993931;28;20258;-63
2023/06/08 04:19:02;;;;;;;1.97;1.87;;;14.10;99.90;;;;;;4993538;28;20312;-63
2023/06/08 04:21:28;;;;;;;3.03;2.83;;;14.30;99.90;;;;;;4993893;28;20497;-63
2023/06/08 04:23:53;;;;;;;2.00;1.90;;;14.50;99.90;;;;;;4993552;28;20171;-63
2023/06/08 04:26:19;;;;;;;2.40;2.20;;;14.70;99.90;;;;;;4994065;28;20183;-63
2023/06/08 04:28:48;;;;;;;2.80;2.60;;;14.90;99.90;;;;;;4993763;28;20262;-63
2023/06/08 04:31:14;;;;;;;2.97;2.70;;;15.10;99.90;;;;;;4993617;28;20641;-63
2023/06/08 04:33:39;;;;;;;3.03;2.80;;;15.20;99.90;;;;;;4993162;28;20410;-64
2023/06/08 04:36:05;;;;;;;2.43;2.20;;;15.40;99.90;;;;;;4992879;28;20191;-63
2023/06/08 04:38:31;;;;;;;3.20;3.00;;;15.50;99.90;;;;;;4993513;28;20204;-63
2023/06/08 04:40:56;;;;;;;3.23;2.93;;;15.50;99.90;;;;;;4993653;28;20409;-63
2023/06/08 04:43:25;;;;;;;2.97;2.77;;;15.30;99.90;;;;;;4993380;28;20219;-63
2023/06/08 04:45:59;;;;;;;2.50;2.30;;;15.30;99.90;;;;;;4993665;28;20214;-63
2023/06/08 04:48:28;;;;;;;2.80;2.70;;;15.30;99.90;;;;;;4993652;28;20414;-63
2023/06/08 04:51:03;;;;;;;2.80;2.60;;;15.30;99.90;;;;;;4993410;28;20411;-63
2023/06/08 04:53:33;;;;;;;2.53;2.33;;;15.30;99.90;;;;;;4996168;28;20480;-63
2023/06/08 04:56:02;;;;;;;2.53;2.43;;;15.20;99.90;;;;;;4979639;28;20470;-64
2023/06/08 04:58:29;;;;;;;2.87;2.67;;;15.20;99.90;;;;;;4996937;28;20457;-63
2023/06/08 05:00:55;;;;;;;2.17;2.07;;;15.30;99.90;;;;;;4996859;28;20437;-63
2023/06/08 05:03:22;;;;;;;2.10;2.00;;;15.40;99.90;;;;;;4996606;28;20403;-63
2023/06/08 05:05:48;;;;;;;2.77;2.47;;;15.40;99.90;;;;;;4996993;28;20451;-64
2023/06/08 05:08:14;;;;;;;2.83;2.63;;;15.50;99.90;;;;;;4996503;28;20437;-64
2023/06/08 05:10:40;;;;;;;3.20;2.93;;;15.60;99.90;;;;;;4996802;28;20418;-63
2023/06/08 05:13:05;;;;;;;2.47;2.37;;;15.60;99.90;;;;;;4996695;28;20406;-65
2023/06/08 05:15:31;;;;;;;2.27;2.17;;;15.60;99.90;;;;;;4996482;28;20238;-64
2023/06/08 05:17:58;;;;;;;2.20;2.10;;;15.60;99.90;;;;;;4996589;28;20167;-63
2023/06/08 05:20:25;;;;;;;2.10;2.00;;;15.70;99.90;;;;;;4996706;28;20207;-64
2023/06/08 05:22:51;;;;;;;2.17;2.07;;;15.80;99.90;;;;;;4996582;28;20485;-64
2023/06/08 05:25:17;;;;;;;2.43;2.33;;;15.80;99.90;;;;;;4996348;28;20436;-64
2023/06/08 05:27:43;;;;;;;2.30;2.13;;;15.90;99.90;;;;;;4996441;28;20403;-64
2023/06/08 05:30:09;;;;;;;3.33;3.13;;;16.00;99.90;;;;;;4996442;28;20176;-64
2023/06/08 05:32:35;;;;;;;2.63;2.53;;;16.10;99.90;;;;;;4996936;28;20420;-64
2023/06/08 05:35:01;;;;;;;3.40;3.10;;;16.40;99.90;;;;;;4996082;28;20211;-63
2023/06/08 05:37:27;;;;;;;2.53;2.33;;;16.70;99.90;;;;;;4996397;28;20418;-64
2023/06/08 05:39:53;;;;;;;3.37;2.80;;;17.30;99.90;;;;;;4996276;28;20948;-64
2023/06/08 05:42:19;;;;;;;3.73;2.80;;;17.70;99.90;;;;;;4996062;28;20166;-64
2023/06/08 05:44:45;;;;;;;5.80;3.53;;;18.00;99.90;;;;;;4995965;28;20250;-63
2023/06/08 05:47:10;;;;;;;2.77;2.60;;;18.20;99.90;;;;;;4996304;28;20418;-63
2023/06/08 05:49:36;;;;;;;2.57;2.37;;;18.40;99.90;;;;;;4996031;28;20171;-63
2023/06/08 05:52:01;;;;;;;2.40;2.30;;;18.50;99.90;;;;;;4996051;28;20209;-63
2023/06/08 05:54:27;;;;;;;3.57;3.30;;;18.50;99.90;;;;;;4995569;28;20198;-63
2023/06/08 05:56:53;;;;;;;3.53;3.33;;;18.50;99.90;;;;;;4995926;28;20179;-62
2023/06/08 05:59:18;;;;;;;2.83;2.63;;;18.60;99.90;;;;;;4995901;28;20207;-63
2023/06/08 06:01:45;;;;;;;2.40;2.30;;;18.60;99.90;;;;;;4995948;28;20633;-63
2023/06/08 06:04:11;;;;;;;2.53;2.33;;;18.80;99.90;;;;;;4995195;28;20281;-62
2023/06/08 06:06:36;;;;;;;2.93;2.83;;;18.90;99.90;;;;;;4995763;28;20497;-63
2023/06/08 06:09:03;;;;;;;3.43;3.13;;;18.90;99.90;;;;;;4995830;28;20195;-63
2023/06/08 06:11:30;;;;;;;2.30;2.20;;;18.90;99.90;;;;;;4995794;28;20183;-62
2023/06/08 06:13:57;;;;;;;4.40;3.80;;;19.10;99.90;;;;;;4995271;28;20418;-64
2023/06/08 06:16:23;;;;;;;3.23;2.87;;;19.10;99.90;;;;;;4995433;28;20434;-64
2023/06/08 06:18:49;;;;;;;2.73;2.53;;;19.10;99.90;;;;;;4995576;28;20521;-64
2023/06/08 06:21:15;;;;;;;2.57;2.43;;;19.20;99.90;;;;;;4995618;28;20277;-63
2023/06/08 06:23:40;;;;;;;2.80;2.60;;;19.30;99.90;;;;;;4995243;28;20181;-63
2023/06/08 06:26:06;;;;;;;3.00;2.80;;;19.20;99.90;;;;;;4995167;28;20558;-63
2023/06/08 06:28:31;;;;;;;2.63;2.53;;;19.30;99.90;;;;;;4995223;28;20194;-64
2023/06/08 06:30:57;;;;;;;2.83;2.63;;;19.60;99.90;;;;;;4995291;28;20167;-64
2023/06/08 06:33:23;;;;;;;3.07;2.87;;;19.90;99.90;;;;;;4995052;28;20584;-63
2023/06/08 06:35:50;;;;;;;2.90;2.70;;;20.00;99.90;;;;;;4977777;28;20477;-64
2023/06/08 06:38:15;;;;;;;2.60;2.50;;;20.00;99.90;;;;;;4995271;28;20575;-64
2023/06/08 06:40:41;;;;;;;3.23;3.03;;;20.10;99.50;;;;;;4995181;28;20414;-65
2023/06/08 06:43:07;;;;;;;5.20;3.60;;;20.10;99.70;;;;;;4994771;28;20180;-64
2023/06/08 06:45:33;;;;;;;3.90;2.90;;;20.10;99.80;;;;;;4994881;28;20218;-63
2023/06/08 06:47:58;;;;;;;3.20;3.00;;;20.20;99.70;;;;;;4995019;28;20837;-64
2023/06/08 06:50:24;;;;;;;2.60;2.40;;;20.30;99.50;;;;;;4995056;28;20202;-64
2023/06/08 06:52:50;;;;;;;2.70;2.50;;;20.50;98.90;;;;;;4995114;28;20190;-64
2023/06/08 06:55:15;;;;;;;2.63;2.53;;;20.60;98.30;;;;;;4976896;28;20456;-64
2023/06/08 06:57:41;;;;;;;2.33;2.13;;;20.70;98.20;;;;;;4994903;28;20172;-63
2023/06/08 07:00:10;;;;;;;2.80;2.60;;;20.80;98.30;;;;;;4994807;28;20214;-64
2023/06/08 07:02:38;;;;;;;2.63;2.43;;;20.90;97.40;;;;;;4977534;28;20287;-64
2023/06/08 07:05:07;;;;;;;4.60;2.90;;;21.00;97.50;;;;;;4994314;28;20834;-64
2023/06/08 07:07:34;;;;;;;2.80;2.60;;;21.10;97.60;;;;;;4994506;28;20505;-64
2023/06/08 07:10:00;;;;;;;3.30;3.10;;;21.40;97.30;;;;;;4994620;28;20936;-63
2023/06/08 07:12:25;;;;;;;2.27;2.07;;;21.50;96.80;;;;;;4994414;28;20411;-64
2023/06/08 07:14:51;;;;;;;3.33;3.13;;;21.60;96.00;;;;;;4993611;28;20203;-64
2023/06/08 07:17:16;;;;;;;3.17;2.80;;;21.70;95.40;;;;;;4994444;28;20214;-65
2023/06/08 07:19:44;;;;;;;2.87;2.70;;;21.80;95.30;;;;;;4994448;28;20555;-64
2023/06/08 07:22:10;;;;;;;2.80;2.60;;;22.10;95.50;;;;;;4994367;28;20645;-64
2023/06/08 07:24:36;;;;;;;2.50;2.30;;;22.30;95.30;;;;;;4993855;28;20436;-63
2023/06/08 07:27:01;;;;;;;2.90;2.70;;;22.70;94.70;;;;;;4994216;28;20180;-64
2023/06/08 07:29:27;;;;;;;3.43;3.13;;;23.30;93.60;;;;;;4994140;28;20507;-65
2023/06/08 07:31:52;;;;;;;2.87;2.67;;;24.10;93.60;;;;;;4994171;28;20233;-63
2023/06/08 07:34:18;;;;;;;2.90;2.60;;;24.90;92.20;;;;;;4993790;28;20550;-64
2023/06/08 07:36:43;;;;;;;2.83;2.37;;;25.60;91.10;;;;;;4994231;28;20245;-63
2023/06/08 07:39:09;;;;;;;2.70;2.50;;;26.50;87.80;;;;;;4994084;28;20203;-65
2023/06/08 07:41:35;;;;;;;2.43;2.33;;;27.40;84.70;;;;;;4994002;28;20191;-63
2023/06/08 07:44:02;;;;;;;3.10;2.80;;;28.60;80.00;;;;;;4993785;28;20171;-65
2023/06/08 07:46:27;;;;;;;3.17;2.87;;;30.10;76.80;;;;;;4994205;28;20187;-64
2023/06/08 07:48:53;;;;;;;3.33;3.13;;;31.40;70.50;;;;;;4994222;28;20878;-65
2023/06/08 07:51:18;;;;;;;3.20;3.00;;;32.20;66.80;;;;;;4994139;28;20207;-64
2023/06/08 07:53:44;;;;;;;3.17;2.97;;;32.70;63.80;;;;;;4994273;28;20692;-64
2023/06/08 07:56:10;;;;;;;2.83;2.63;;;33.10;63.40;;;;;;4994068;28;20199;-65
2023/06/08 07:58:36;;;;;;;2.90;2.70;;;33.70;60.20;;;;;;4976505;28;20211;-65
2023/06/08 08:01:02;;;;;;;3.00;2.83;;;34.30;59.70;;;;;;4993885;28;20381;-64
2023/06/08 08:03:28;;;;;;;2.80;2.70;;;34.60;58.70;;;;;;4993509;28;20207;-65
2023/06/08 08:05:55;;;;;;;2.83;2.63;;;34.90;56.70;;;;;;4993946;28;20459;-64
2023/06/08 08:08:21;;;;;;;3.47;3.27;;;35.10;56.90;;;;;;4993681;28;20464;-64
2023/06/08 08:10:47;;;;;;;2.93;2.83;;;35.30;56.10;;;;;;4993898;28;20419;-65
2023/06/08 08:13:13;;;;;;;2.93;2.73;;;35.60;55.10;;;;;;4993602;28;20182;-65
2023/06/08 08:15:41;;;;;;;2.70;2.60;;;36.00;54.60;;;;;;4994023;28;20401;-66
2023/06/08 08:18:07;;;;;;;2.80;2.70;;;36.40;53.20;;;;;;4993804;28;20270;-64
2023/06/08 08:20:33;;;;;;;3.20;3.00;;;36.90;52.90;;;;;;4993780;28;20549;-66
2023/06/08 08:22:58;;;;;;;4.80;4.50;;;37.30;51.80;;;;;;4993693;28;20507;-65
2023/06/08 08:25:24;;;;;;;3.03;2.83;;;37.10;52.70;;;;;;4993390;28;20200;-66
2023/06/08 08:27:50;;;;;;;3.40;3.20;;;37.20;52.40;;;;;;4995729;28;20175;-64
2023/06/08 08:30:16;;;;;;;3.17;2.97;;;37.00;52.90;;;;;;4997616;28;20175;-65
2023/06/08 08:32:41;;;;;;;4.67;4.30;;;37.40;53.10;;;;;;4997599;28;20634;-64
2023/06/08 08:35:10;;;;;;;2.73;2.63;;;37.90;51.90;;;;;;4997111;28;20199;-65
2023/06/08 08:37:35;;;;;;;3.60;3.40;;;37.90;51.90;;;;;;4997308;28;20187;-65
2023/06/08 08:40:01;;;;;;;3.67;3.47;;;37.50;52.90;;;;;;4997414;28;20481;-64
2023/06/08 08:42:28;;;;;;;3.30;3.10;;;37.40;54.10;;;;;;4997461;28;20235;-65
2023/06/08 08:44:55;;;;;;;3.63;3.43;;;37.20;53.20;;;;;;4997024;28;20196;-65
2023/06/08 08:47:28;;;;;;;3.37;3.17;;;37.00;52.50;;;;;;4997133;28;20461;-65
2023/06/08 08:50:06;;;;;;;3.50;3.20;;;36.70;53.10;;;;;;4997243;28;20457;-64
2023/06/08 08:52:37;;;;;;;3.40;3.20;;;36.30;53.90;;;;;;4980128;28;20801;-64
2023/06/08 08:55:04;;;;;;;3.17;2.97;;;36.40;53.20;;;;;;4996813;28;20963;-63
2023/06/08 08:57:30;;;;;;;3.17;3.07;;;36.10;52.90;;;;;;4997211;28;20415;-64
2023/06/08 08:59:56;;;;;;;3.47;3.27;;;36.20;53.90;;;;;;4997184;28;20509;-64
2023/06/08 09:02:22;;;;;;;3.77;3.57;;;36.50;53.60;;;;;;4997077;28;20402;-65
2023/06/08 09:04:48;;;;;;;4.07;3.83;;;37.00;52.80;;;;;;4996796;28;20526;-65
2023/06/08 09:07:21;;;;;;;3.50;3.30;;;37.30;53.60;;;;;;4996717;28;20453;-64
2023/06/08 09:10:25;;;;;;;3.90;3.70;;;37.50;53.10;;;;;;4979370;28;20415;-64
2023/06/08 09:12:53;;;;;;;4.00;3.70;;;37.80;52.60;;;;;;4993627;28;20422;-64
2023/06/08 09:15:29;;;;;;;3.80;3.60;;;37.70;52.40;;;;;;4996271;28;20470;-65
2023/06/08 09:18:02;;;;;;;3.63;3.43;;;37.70;52.30;;;;;;4996746;28;20907;-64
2023/06/08 09:20:33;;;;;;;3.90;3.70;;;37.60;52.00;;;;;;4996549;28;20474;-65
2023/06/08 09:23:14;;;;;;;3.40;3.20;;;37.60;51.60;;;;;;4996750;28;20497;-64
2023/06/08 09:25:40;;;;;;;4.07;3.77;;;37.70;52.80;;;;;;4996440;28;20936;-65
2023/06/08 09:28:24;;;;;;;3.80;3.60;;;37.80;51.20;;;;;;4996319;28;20423;-64
2023/06/08 09:30:51;;;;;;;3.70;3.50;;;37.70;51.30;;;;;;4978993;28;20180;-65
2023/06/08 09:33:24;;;;;;;4.20;4.00;;;37.40;51.30;;;;;;4996288;28;20403;-65
2023/06/08 09:36:15;;;;;;;4.33;4.03;;;37.30;50.50;;;;;;4996446;28;20849;-65
2023/06/08 09:38:42;;;;;;;4.13;3.93;;;37.60;52.10;;;;;;4978440;28;20493;-64
2023/06/08 09:41:21;;;;;;;3.33;3.13;;;38.00;50.80;;;;;;4996538;28;20955;-64
2023/06/08 09:43:48;;;;;;;4.27;4.00;;;38.20;49.90;;;;;;4996031;28;20410;-65
2023/06/08 09:46:31;;;;;;;4.07;3.87;;;38.20;50.20;;;;;;4996141;28;20434;-64
2023/06/08 09:48:57;;;;;;;3.83;3.63;;;38.10;50.80;;;;;;4996144;28;20423;-64
2023/06/08 09:51:24;;;;;;;3.60;3.40;;;38.20;50.80;;;;;;4996022;28;20493;-64
2023/06/08 09:53:56;;;;;;;3.63;3.43;;;38.30;51.60;;;;;;4995796;28;20175;-64
2023/06/08 09:56:23;;;;;;;3.77;3.57;;;38.30;50.20;;;;;;4996076;28;20435;-64
2023/06/08 09:58:56;;;;;;;4.50;4.23;;;38.40;50.80;;;;;;4996126;28;20419;-64
2023/06/08 10:01:41;;;;;;;4.23;4.03;;;38.20;50.60;;;;;;4995979;28;20939;-64
2023/06/08 10:04:31;;;;;;;3.90;3.70;;;38.00;50.20;;;;;;4978011;28;20562;-64
2023/06/08 10:07:02;;;;;;;3.93;3.73;;;38.00;50.30;;;;;;4984184;28;20799;-63
2023/06/08 10:09:29;;;;;;;3.53;3.33;;;37.80;49.20;;;;;;4995807;28;20932;-63
2023/06/08 10:11:59;;;;;;;3.57;3.37;;;37.80;48.90;;;;;;4995715;28;20893;-63
2023/06/08 10:14:26;;;;;;;4.60;4.30;;;37.80;49.10;;;;;;4995373;28;20443;-62
2023/06/08 10:16:54;;;;;;;4.33;4.03;;;37.40;49.40;;;;;;4995691;28;20932;-62
2023/06/08 10:19:20;;;;;;;3.77;3.57;;;37.20;48.70;;;;;;4995652;28;20427;-63
2023/06/08 10:21:48;;;;;;;3.67;3.47;;;36.60;50.40;;;;;;4995685;28;20773;-62
2023/06/08 10:24:15;;;;;;;3.40;3.30;;;36.60;51.60;;;;;;4995040;28;20474;-63
2023/06/08 10:26:41;;;;;;;3.60;3.33;;;36.70;50.50;;;;;;4995735;28;20403;-62
2023/06/08 10:29:08;;;;;;;4.27;3.97;;;37.00;51.40;;;;;;4995391;28;20859;-63
2023/06/08 10:31:39;;;;;;;4.10;3.90;;;37.20;50.00;;;;;;4995148;28;20175;-63
2023/06/08 10:34:10;;;;;;;4.03;3.83;;;37.40;51.30;;;;;;4994714;28;20414;-62
2023/06/08 10:36:40;;;;;;;4.20;4.00;;;37.40;49.90;;;;;;4978171;28;20423;-62
2023/06/08 10:39:17;;;;;;;4.10;3.80;;;37.30;51.30;;;;;;4995224;28;20735;-62
2023/06/08 10:42:01;;;;;;;4.50;4.20;;;37.10;50.10;;;;;;4995200;28;20405;-62
2023/06/08 10:44:36;;;;;;;4.00;3.70;;;36.70;50.00;;;;;;4994749;28;20434;-62
2023/06/08 10:47:07;;;;;;;4.10;3.80;;;36.50;50.50;;;;;;4977403;28;20422;-62
2023/06/08 10:49:34;;;;;;;4.00;3.70;;;36.50;50.20;;;;;;4994231;28;20544;-62
2023/06/08 10:52:01;;;;;;;5.07;4.77;;;36.40;51.30;;;;;;4994891;28;20430;-63
2023/06/08 10:54:27;;;;;;;4.57;4.27;;;36.20;50.40;;;;;;4994523;28;20442;-63
2023/06/08 10:56:57;;;;;;;4.00;3.80;;;36.10;50.80;;;;;;4994916;28;20422;-63
2023/06/08 10:59:36;;;;;;;4.20;3.90;;;35.90;51.10;;;;;;4995224;28;20885;-63
2023/06/08 11:02:03;;;;;;;3.80;3.50;;;35.80;51.00;;;;;;4994921;28;20406;-63
2023/06/08 11:04:30;;;;;;;3.57;3.37;;;35.70;51.50;;;;;;4994309;28;20941;-61
2023/06/08 11:07:03;;;;;;;4.70;4.30;;;35.70;52.40;;;;;;4994675;28;20410;-63
2023/06/08 11:09:33;;;;;;;4.73;4.43;;;35.30;51.60;;;;;;4994687;28;20501;-63
2023/06/08 11:12:00;;;;;;;4.00;3.70;;;35.00;52.20;;;;;;4994460;28;20473;-62
2023/06/08 11:14:27;;;;;;;5.27;4.77;;;34.40;52.50;;;;;;4994320;28;20406;-63
2023/06/08 11:16:54;;;;;;;4.57;4.27;;;33.30;52.80;;;;;;4994411;28;20873;-63
2023/06/08 11:19:21;;;;;;;5.10;4.70;;;32.30;55.40;;;;;;4994546;28;20423;-61
2023/06/08 11:21:50;;;;;;;5.00;4.53;;;31.70;56.20;;;;;;4994350;28;20397;-62
2023/06/08 11:24:20;;;;;;;4.07;3.77;;;31.20;56.00;;;;;;4994202;28;20430;-64
2023/06/08 11:26:46;;;;;;;3.80;3.60;;;31.10;58.40;;;;;;4994175;28;20904;-62
2023/06/08 11:29:13;;;;;;;4.93;4.53;;;30.90;56.80;;;;;;4994357;28;20462;-62
2023/06/08 11:31:40;;;;;;;4.70;4.30;;;30.60;57.20;;;;;;4994212;28;20481;-65
2023/06/08 11:34:07;;;;;;;5.07;4.77;;;30.20;57.30;;;;;;4976485;28;20976;-62
2023/06/08 11:36:35;;;;;;;4.10;3.80;;;29.70;58.10;;;;;;4994313;28;20385;-62
2023/06/08 11:39:02;;;;;;;4.53;4.13;;;29.40;59.20;;;;;;4994286;28;20398;-63
2023/06/08 11:41:29;;;;;;;4.63;4.30;;;29.40;58.50;;;;;;4994172;28;20400;-63
2023/06/08 11:43:57;;;;;;;4.57;4.17;;;29.40;59.00;;;;;;4994031;28;20410;-63
2023/06/08 11:46:23;;;;;;;4.43;4.13;;;29.50;59.50;;;;;;4994018;28;20408;-62
2023/06/08 11:48:48;;;;;;;4.87;4.43;;;29.60;59.10;;;;;;4994095;28;20437;-63
2023/06/08 11:51:17;;;;;;;4.53;4.23;;;29.40;59.10;;;;;;4994038;28;20919;-63
2023/06/08 11:53:45;;;;;;;4.97;4.57;;;29.40;59.40;;;;;;4992915;28;20703;-63
2023/06/08 11:56:11;;;;;;;4.30;4.00;;;29.40;59.90;;;;;;4993707;28;20421;-62
2023/06/08 11:58:39;;;;;;;4.73;4.37;;;29.50;61.20;;;;;;4994016;28;20397;-63
2023/06/08 12:01:11;;;;;;;5.00;4.60;;;29.80;60.90;;;;;;4995576;28;20417;-63
2023/06/08 12:03:47;;;;;;;5.70;5.30;;;29.80;61.20;;;;;;5000137;28;20442;-63
2023/06/08 12:06:14;;;;;;;5.47;4.90;;;29.90;62.50;;;;;;5000667;28;20466;-63
2023/06/08 12:08:41;;;;;;;4.57;4.27;;;29.70;59.70;;;;;;4999758;28;20919;-63
2023/06/08 12:11:09;;;;;;;4.90;4.50;;;29.60;59.70;;;;;;5000508;28;20493;-63
2023/06/08 12:13:35;;;;;;;4.73;4.27;;;29.40;59.70;;;;;;5000392;28;20390;-64
2023/06/08 12:16:05;;;;;;;4.37;4.07;;;29.20;59.50;;;;;;5000317;28;20963;-63
2023/06/08 12:18:38;;;;;;;4.60;4.23;;;28.90;58.30;;;;;;5000077;28;20194;-63
2023/06/08 12:21:05;;;;;;;4.37;4.10;;;28.40;56.20;;;;;;5000433;28;20726;-62
2023/06/08 12:23:31;;;;;;;3.30;3.10;;;28.00;57.10;;;;;;4999631;28;20407;-63
2023/06/08 12:25:56;;;;;;;3.67;3.40;;;27.50;58.80;;;;;;5000365;28;20443;-63
2023/06/08 12:28:24;;;;;;;3.93;3.63;;;27.00;60.40;;;;;;4982959;28;20178;-63
2023/06/08 12:30:50;;;;;;;3.90;3.60;;;26.50;62.90;;;;;;5000326;28;20634;-63
2023/06/08 12:33:20;;;;;;;3.80;3.50;;;26.00;64.70;;;;;;5000018;28;20525;-63
2023/06/08 12:35:49;;;;;;;3.30;3.10;;;25.60;65.30;;;;;;5000119;28;20441;-67
2023/06/08 12:38:15;;;;;;;3.57;3.27;;;24.70;77.00;;;;;;4999840;28;20461;-71
2023/06/08 12:40:47;;;;;;;3.63;3.33;;;22.40;86.60;;;;;;5000225;28;20415;-69
2023/06/08 12:43:16;;;;;;;4.47;3.47;;;19.60;96.20;;;;;;4999772;28;20398;-72
2023/06/08 12:45:42;;;;;;;4.50;4.20;;;17.50;99.90;;;;;;4999906;28;20475;-69
2023/06/08 12:48:09;;;;;;;3.47;3.17;;;16.40;99.90;;;;;;5000099;28;20751;-69
2023/06/08 12:50:34;;;;;;;4.27;3.87;;;15.40;99.90;;;;;;5000137;28;20407;-67
2023/06/08 12:53:00;;;;;;;4.80;4.50;;;14.80;99.90;;;;;;4999850;28;20428;-67
2023/06/08 12:55:25;;;;;;;2.60;2.40;;;14.70;99.90;;;;;;4999356;28;20203;-67
2023/06/08 12:57:51;;;;;;;3.80;3.50;;;14.80;99.90;;;;;;5000097;28;20562;-67
2023/06/08 13:00:21;;;;;;;3.80;3.50;;;14.90;99.90;;;;;;4999853;28;20207;-65
2023/06/08 13:02:47;;;;;;;3.27;2.97;;;15.00;99.90;;;;;;4999898;28;20168;-68
2023/06/08 13:05:13;;;;;;;4.83;3.80;;;15.10;99.90;;;;;;4999121;28;20438;-64
2023/06/08 13:07:38;;;;;;;3.87;3.57;;;15.20;99.90;;;;;;4999615;28;20438;-64
2023/06/08 13:10:04;;;;;;;7.73;4.83;;;15.30;99.90;;;;;;4999950;28;20175;-64
2023/06/08 13:12:30;;;;;;;3.40;3.10;;;15.40;99.90;;;;;;4998577;28;20649;-66
2023/06/08 13:14:56;;;;;;;5.37;4.87;;;15.50;99.90;;;;;;4996356;28;20440;-65
2023/06/08 13:17:21;;;;;;;4.80;4.00;;;15.60;99.90;;;;;;4996713;28;20501;-66
2023/06/08 13:19:47;;;;;;;7.00;5.17;;;15.80;99.90;;;;;;4996771;28;20208;-67
2023/06/08 13:22:13;;;;;;;5.47;4.97;;;15.90;99.90;;;;;;4996771;28;20575;-64
2023/06/08 13:24:39;;;;;;;4.33;4.00;;;16.00;99.90;;;;;;4996215;28;20195;-67
2023/06/08 13:27:06;;;;;;;4.67;4.27;;;16.10;99.90;;;;;;4996924;28;20175;-64
2023/06/08 13:29:31;;;;;;;4.73;4.33;;;16.10;99.90;;;;;;4996493;28;20963;-67
2023/06/08 13:31:57;;;;;;;6.73;4.13;;;16.20;99.90;;;;;;4996813;28;20529;-67
2023/06/08 13:34:23;;;;;;;5.27;4.77;;;16.20;99.90;;;;;;4996084;28;20199;-65
2023/06/08 13:36:50;;;;;;;4.30;3.90;;;16.10;99.90;;;;;;4996137;28;20427;-66
2023/06/08 13:39:16;;;;;;;4.10;3.70;;;16.00;99.90;;;;;;4995905;28;20683;-65
2023/06/08 13:41:42;;;;;;;4.10;3.57;;;15.90;99.90;;;;;;4996478;28;20402;-65
2023/06/08 13:44:08;;;;;;;4.20;3.80;;;15.70;99.90;;;;;;4995547;28;20175;-64
2023/06/08 13:46:35;;;;;;;4.67;4.20;;;15.70;99.90;;;;;;4996200;28;20502;-65
2023/06/08 13:49:01;;;;;;;3.90;3.60;;;15.60;99.90;;;;;;4996063;28;20426;-63
2023/06/08 13:51:27;;;;;;;3.67;3.37;;;15.60;99.90;;;;;;4996190;28;20423;-64
2023/06/08 13:53:53;;;;;;;4.00;3.60;;;15.70;99.90;;;;;;4995573;28;20410;-64
2023/06/08 13:56:20;;;;;;;5.37;4.00;;;15.70;99.90;;;;;;4995762;28;20489;-65
2023/06/08 13:58:45;;;;;;;4.17;3.87;;;15.80;99.90;;;;;;4995394;28;20501;-64
2023/06/08 14:01:11;;;;;;;4.07;3.67;;;15.80;99.90;;;;;;4996120;28;20442;-64
2023/06/08 14:03:37;;;;;;;3.57;3.07;;;15.80;99.90;;;;;;4995749;28;20230;-64
2023/06/08 14:06:04;;;;;;;3.90;3.50;;;15.80;99.90;;;;;;4995760;28;20274;-63
2023/06/08 14:08:30;;;;;;;3.80;3.50;;;15.90;99.90;;;;;;4995603;28;20496;-63
2023/06/08 14:10:56;;;;;;;4.93;4.23;;;15.90;99.90;;;;;;4995844;28;20442;-63
2023/06/08 14:13:22;;;;;;;4.57;4.17;;;16.00;99.90;;;;;;4995077;28;20450;-65
2023/06/08 14:15:48;;;;;;;5.13;4.63;;;16.10;99.90;;;;;;4995636;28;20467;-64
2023/06/08 14:18:13;;;;;;;5.10;4.70;;;16.20;99.90;;;;;;4995841;28;20697;-64
2023/06/08 14:20:41;;;;;;;5.10;4.60;;;16.30;99.90;;;;;;4995641;28;20535;-64
2023/06/08 14:23:07;;;;;;;5.57;5.00;;;16.40;99.90;;;;;;4995376;28;20259;-65
2023/06/08 14:25:33;;;;;;;4.53;4.13;;;16.40;99.90;;;;;;4994436;28;20501;-63
2023/06/08 14:27:58;;;;;;;5.10;4.53;;;16.50;99.90;;;;;;4977785;28;20434;-63
2023/06/08 14:30:24;;;;;;;4.87;4.20;;;16.60;99.90;;;;;;4996286;28;20180;-63
2023/06/08 14:32:51;;;;;;;5.80;5.23;;;16.70;99.90;;;;;;4995530;28;20674;-63
2023/06/08 14:35:16;;;;;;;4.50;3.90;;;16.90;99.90;;;;;;4994760;28;20205;-62
2023/06/08 14:37:42;;;;;;;5.73;5.13;;;17.10;99.90;;;;;;4995315;28;20417;-64
2023/06/08 14:40:08;;;;;;;4.53;4.23;;;17.20;99.90;;;;;;4995021;28;20210;-63
2023/06/08 14:42:34;;;;;;;5.30;4.80;;;17.30;99.90;;;;;;4995009;28;20276;-63
2023/06/08 14:44:59;;;;;;;6.90;5.80;;;17.60;99.90;;;;;;4994746;28;20534;-64
2023/06/08 14:47:25;;;;;;;8.70;5.40;;;17.80;99.90;;;;;;4995060;28;20182;-64
2023/06/08 14:49:51;;;;;;;6.40;5.33;;;18.00;99.90;;;;;;4995082;28;20187;-64
2023/06/08 14:52:16;;;;;;;6.80;6.10;;;18.10;99.90;;;;;;4994969;28;20185;-63
2023/06/08 14:54:42;;;;;;;7.13;6.00;;;18.30;99.90;;;;;;4994511;28;20196;-64
2023/06/08 14:57:07;;;;;;;4.80;4.30;;;18.50;99.90;;;;;;4994687;28;20697;-63
2023/06/08 14:59:34;;;;;;;4.53;3.93;;;18.60;99.90;;;;;;4994622;28;20202;-64
2023/06/08 15:02:00;;;;;;;6.43;3.90;;;18.80;99.90;;;;;;4994885;28;20202;-63
2023/06/08 15:04:25;;;;;;;7.00;5.30;;;18.90;99.90;;;;;;4994232;28;20466;-64
2023/06/08 15:06:51;;;;;;;4.03;3.73;;;19.10;99.90;;;;;;4994810;28;20230;-62
2023/06/08 15:09:16;;;;;;;5.07;4.57;;;19.20;99.90;;;;;;4994531;28;20195;-63
2023/06/08 15:11:42;;;;;;;4.87;4.30;;;19.30;99.90;;;;;;4994360;28;20218;-63
2023/06/08 15:14:08;;;;;;;4.93;4.10;;;19.40;99.90;;;;;;4994180;28;20180;-63
2023/06/08 15:16:33;;;;;;;4.33;3.73;;;19.60;99.90;;;;;;4994605;28;20511;-63
2023/06/08 15:18:59;;;;;;;4.00;3.70;;;19.80;99.90;;;;;;4994336;28;20647;-63
2023/06/08 15:21:24;;;;;;;4.20;3.80;;;19.90;99.90;;;;;;4994601;28;20186;-63
2023/06/08 15:23:50;;;;;;;5.00;4.70;;;20.00;99.90;;;;;;4994252;28;20190;-61
2023/06/08 15:26:16;;;;;;;4.83;4.23;;;20.10;99.90;;;;;;4993633;28;20286;-63
2023/06/08 15:28:41;;;;;;;3.77;3.47;;;20.10;99.90;;;;;;4994029;28;20265;-63
2023/06/08 15:31:07;;;;;;;4.70;4.30;;;20.20;99.90;;;;;;4994333;28;20179;-63
2023/06/08 15:33:32;;;;;;;3.90;3.37;;;20.30;99.90;;;;;;4993869;28;20610;-63
2023/06/08 15:35:58;;;;;;;4.77;3.60;;;20.50;99.90;;;;;;4993671;28;20215;-63
2023/06/08 15:38:24;;;;;;;4.80;4.40;;;20.60;99.90;;;;;;4994341;28;20180;-63
2023/06/08 15:40:49;;;;;;;4.00;3.60;;;20.80;99.90;;;;;;4994075;28;20200;-63
2023/06/08 15:43:15;;;;;;;4.10;3.80;;;20.90;99.90;;;;;;4994349;28;20229;-63
2023/06/08 15:45:42;;;;;;;4.90;4.50;;;21.00;99.90;;;;;;4994089;28;20270;-63
2023/06/08 15:48:08;;;;;;;3.73;3.43;;;21.10;99.90;;;;;;4994076;28;20427;-63
2023/06/08 15:50:33;;;;;;;3.53;3.27;;;21.20;99.90;;;;;;4993803;28;20414;-63
2023/06/08 15:52:59;;;;;;;4.33;4.03;;;21.30;99.90;;;;;;4993616;28;20179;-63
2023/06/08 15:55:25;;;;;;;3.80;3.50;;;21.30;99.90;;;;;;4993560;28;20234;-63
2023/06/08 15:57:50;;;;;;;4.13;3.70;;;21.40;99.90;;;;;;4994216;28;20246;-63
2023/06/08 16:00:16;;;;;;;4.70;4.30;;;21.50;99.90;;;;;;4994195;28;20203;-63
2023/06/08 16:02:42;;;;;;;4.47;4.07;;;21.60;99.90;;;;;;4993856;28;20178;-64
2023/06/08 16:05:08;;;;;;;7.00;6.13;;;21.60;99.90;;;;;;4992986;28;20442;-64
2023/06/08 16:07:33;;;;;;;4.10;3.77;;;21.60;99.90;;;;;;4993859;28;20198;-63
2023/06/08 16:10:03;;;;;;;3.87;3.40;;;21.60;99.90;;;;;;4993669;28;20172;-64
2023/06/08 16:12:28;;;;;;;3.57;3.37;;;21.60;99.90;;;;;;4993729;28;20230;-64
2023/06/08 16:14:59;;;;;;;4.60;4.20;;;21.60;99.90;;;;;;4992997;28;20447;-62
2023/06/08 16:17:24;;;;;;;4.27;3.93;;;21.60;99.90;;;;;;4976441;28;20624;-64
2023/06/08 16:19:50;;;;;;;4.63;4.13;;;21.60;99.90;;;;;;4993826;28;20557;-63
2023/06/08 16:22:16;;;;;;;4.00;3.70;;;21.60;99.90;;;;;;4993968;28;20522;-62
2023/06/08 16:24:42;;;;;;;4.13;3.80;;;21.50;99.90;;;;;;4993234;28;20226;-63
2023/06/08 16:27:08;;;;;;;3.80;3.50;;;21.40;99.90;;;;;;4993705;28;20533;-62
2023/06/08 16:29:34;;;;;;;3.27;3.07;;;21.30;99.90;;;;;;4993867;28;20175;-63
2023/06/08 16:32:00;;;;;;;4.43;4.03;;;21.30;99.90;;;;;;4993717;28;20489;-62
2023/06/08 16:34:25;;;;;;;3.43;3.17;;;21.30;99.90;;;;;;4993073;28;20520;-63
2023/06/08 16:36:51;;;;;;;3.87;3.57;;;21.30;99.90;;;;;;4993837;28;20195;-63
2023/06/08 16:39:17;;;;;;;3.63;3.30;;;21.30;99.90;;;;;;4993421;28;20211;-63
2023/06/08 16:41:44;;;;;;;4.20;3.90;;;21.30;99.90;;;;;;4993667;28;20167;-63
2023/06/08 16:44:10;;;;;;;3.30;3.00;;;21.30;99.90;;;;;;4993256;28;20542;-63
2023/06/08 16:46:36;;;;;;;4.10;3.60;;;21.30;99.90;;;;;;4993723;28;20414;-63
2023/06/08 16:49:02;;;;;;;3.47;3.17;;;21.30;99.90;;;;;;4996074;28;20804;-62
2023/06/08 16:51:27;;;;;;;3.50;3.20;;;21.30;99.90;;;;;;4997732;28;20542;-63
2023/06/08 16:53:53;;;;;;;3.70;3.40;;;21.30;99.90;;;;;;4996524;28;20430;-63
2023/06/08 16:56:19;;;;;;;4.00;3.63;;;21.30;99.90;;;;;;4997107;28;20202;-63